This is the latest recevied weather packets stored in our database for station/object KC5TXI. If no packets are shown the sender has not sent any weather packets the latest 1 day(s).
| Time | Temp. | Humidity | Pressure | Rain* | Wind** | Luminosity | Snow |
|---|---|---|---|---|---|---|---|
| 1778030397 | 24.44° C | 68% | 1007.1 hPa | 0 mm | - | 0 W/m² | - |
| 1778029791 | 25.56° C | 65% | 1007.4 hPa | 0 mm | - | 0 W/m² | - |
| 1778029186 | 25.56° C | 65% | 1007.1 hPa | 0 mm | - | 0 W/m² | - |
| 1778028884 | 25.56° C | 65% | 1006.9 hPa | 0 mm | - | 3 W/m² | - |
| 1778028579 | 25.56° C | 65% | 1007 hPa | 0 mm | - | 4 W/m² | - |
| 1778028277 | 25.56° C | 65% | 1006.7 hPa | 0 mm | - | 7 W/m² | - |
| 1778027973 | 26.11° C | 65% | 1006.9 hPa | 0 mm | - | 10 W/m² | - |
| 1778027365 | 26.67° C | 63% | 1006.8 hPa | 0 mm | - | 19 W/m² | - |
| 1778027061 | 26.67° C | 62% | 1006.5 hPa | 0 mm | - | 26 W/m² | - |
| 1778026757 | 26.67° C | 61% | 1006.7 hPa | 0 mm | - | 35 W/m² | - |
| 1778026152 | 27.22° C | 61% | 1006.7 hPa | 0 mm | - | 34 W/m² | - |
| 1778025244 | 28.33° C | 60% | 1006.4 hPa | 0 mm | - | 64 W/m² | - |
| 1778022216 | 31.67° C | 59% | 1005.5 hPa | 0 mm | - | 85 W/m² | - |
| 1778021610 | 32.22° C | 58% | 1005.3 hPa | 0 mm | - | 85 W/m² | - |
| 1778021305 | 32.78° C | 58% | 1005.1 hPa | 0 mm | - | 107 W/m² | - |
| 1778020700 | 33.89° C | 48% | 1005 hPa | 0 mm | - | 165 W/m² | - |
| 1778018880 | 35° C | 46% | 1004.9 hPa | 0 mm | - | 416 W/m² | - |
| 1778016762 | 33.89° C | 50% | 1005.1 hPa | 0 mm | - | 422 W/m² | - |
| 1778014034 | 33.89° C | 54% | 1005.8 hPa | 0 mm | - | 359 W/m² | - |
| 1778011913 | 32.78° C | 56% | 1006 hPa | 0 mm | - | 756 W/m² | - |
| 1778011003 | 33.33° C | 58% | 1006.2 hPa | 0 mm | - | 753 W/m² | - |
| 1778007670 | 31.67° C | 61% | 1006.5 hPa | 0 mm | - | 531 W/m² | - |
| 1778006153 | 30.56° C | 63% | 1006.8 hPa | 0 mm | - | 474 W/m² | - |
| 1778005851 | 30.56° C | 64% | 1006.5 hPa | 0 mm | - | 514 W/m² | - |
* Rain latest hour (hover to see other rain measurements)
** Current wind speed in m/s (hover to see current wind gust speed)